createdAt,value
2018-11-28T00:00:16.880Z,30.70
2018-11-28T00:02:45.001Z,32.63
2018-11-28T00:05:13.141Z,27.70
2018-11-28T00:07:41.591Z,30.70
2018-11-28T00:10:12.688Z,25.90
2018-11-28T00:12:41.139Z,29.60
2018-11-28T00:15:11.409Z,29.03
2018-11-28T00:17:39.522Z,30.23
2018-11-28T00:20:11.672Z,29.57
2018-11-28T00:22:39.829Z,28.00
2018-11-28T00:25:08.653Z,26.80
2018-11-28T00:27:36.773Z,25.60
2018-11-28T00:30:08.553Z,26.53
2018-11-28T00:32:36.696Z,27.80
2018-11-28T00:35:05.401Z,29.00
2018-11-28T00:37:33.513Z,25.63
2018-11-28T00:40:01.872Z,30.17
2018-11-28T00:42:30.369Z,26.80
2018-11-28T00:44:58.821Z,26.67
2018-11-28T00:47:26.912Z,29.30
2018-11-28T00:49:55.024Z,27.30
2018-11-28T00:52:23.136Z,24.07
2018-11-28T00:54:51.242Z,25.73
2018-11-28T00:57:19.360Z,26.60
2018-11-28T00:59:47.480Z,27.60
2018-11-28T01:02:15.592Z,24.30
2018-11-28T01:04:43.692Z,26.40
2018-11-28T01:07:11.804Z,22.90
2018-11-28T01:09:39.912Z,25.80
2018-11-28T01:12:08.071Z,24.27
2018-11-28T01:14:36.177Z,26.63
2018-11-28T01:17:04.298Z,27.27
2018-11-28T01:19:32.404Z,28.60
2018-11-28T01:22:00.516Z,23.70
2018-11-28T01:24:28.612Z,24.63
2018-11-28T01:26:56.765Z,23.50
2018-11-28T01:29:24.877Z,27.30
2018-11-28T01:31:53.065Z,24.00
2018-11-28T01:34:21.198Z,30.70
2018-11-28T01:36:49.293Z,27.97
2018-11-28T01:39:17.409Z,26.33
2018-11-28T01:41:45.511Z,23.73
2018-11-28T01:44:13.628Z,26.23
2018-11-28T01:46:41.728Z,26.57
2018-11-28T01:49:09.871Z,29.43
2018-11-28T01:51:37.976Z,28.57
2018-11-28T01:54:06.214Z,28.87
2018-11-28T01:56:34.309Z,26.97
2018-11-28T01:59:02.433Z,30.17
2018-11-28T02:01:30.584Z,27.93
2018-11-28T02:03:58.696Z,28.07
2018-11-28T02:06:26.809Z,28.00
2018-11-28T02:08:54.916Z,29.63
2018-11-28T02:11:23.020Z,26.47
2018-11-28T02:13:51.169Z,26.17
2018-11-28T02:16:19.273Z,29.23
2018-11-28T02:18:47.377Z,27.63
2018-11-28T02:21:15.488Z,27.33
2018-11-28T02:23:43.608Z,29.13
2018-11-28T02:26:11.713Z,25.17
2018-11-28T02:28:39.832Z,28.57
2018-11-28T02:31:07.953Z,26.20
2018-11-28T02:33:36.081Z,28.37
2018-11-28T02:36:04.185Z,33.80
2018-11-28T02:38:32.308Z,31.10
2018-11-28T02:41:00.409Z,30.97
2018-11-28T02:43:28.535Z,28.50
2018-11-28T02:46:35.484Z,28.67
2018-11-28T02:49:03.621Z,26.37
2018-11-28T02:51:31.728Z,31.30
2018-11-28T02:53:59.843Z,29.17
2018-11-28T02:56:27.952Z,32.20
2018-11-28T02:58:56.144Z,30.93
2018-11-28T03:01:24.299Z,27.43
2018-11-28T03:03:52.797Z,27.80
2018-11-28T03:06:20.901Z,26.47
2018-11-28T03:08:49.013Z,27.87
2018-11-28T03:11:17.130Z,25.70
2018-11-28T03:13:45.240Z,29.77
2018-11-28T03:16:18.420Z,30.60
2018-11-28T03:18:47.157Z,25.87
2018-11-28T03:21:15.397Z,30.17
2018-11-28T03:23:43.504Z,24.37
2018-11-28T03:26:11.615Z,26.77
2018-11-28T03:28:39.736Z,28.00
2018-11-28T03:31:07.857Z,27.27
2018-11-28T03:33:35.977Z,26.10
2018-11-28T03:36:04.145Z,26.53
2018-11-28T03:38:32.268Z,26.23
2018-11-28T03:41:00.392Z,28.10
2018-11-28T03:43:28.533Z,26.43
2018-11-28T03:45:56.644Z,25.30
2018-11-28T03:48:24.774Z,25.33
2018-11-28T03:50:52.891Z,26.77
2018-11-28T03:53:21.025Z,25.33
2018-11-28T03:55:49.147Z,25.17
2018-11-28T03:58:17.264Z,23.60
2018-11-28T04:00:45.372Z,25.17
2018-11-28T04:03:13.479Z,23.03
2018-11-28T04:05:41.727Z,23.43
2018-11-28T04:08:09.836Z,27.47
2018-11-28T04:10:37.948Z,23.07
2018-11-28T04:13:06.073Z,29.07
2018-11-28T04:15:34.184Z,26.17
2018-11-28T04:18:02.320Z,24.97
2018-11-28T04:20:30.455Z,27.27
2018-11-28T04:22:58.544Z,21.10
2018-11-28T04:25:26.665Z,26.00
2018-11-28T04:27:54.785Z,28.03
2018-11-28T04:30:23.797Z,29.27
2018-11-28T04:32:52.966Z,29.53
2018-11-28T04:35:21.152Z,27.87
2018-11-28T04:37:49.340Z,29.23
2018-11-28T04:40:18.348Z,29.73
2018-11-28T04:42:47.025Z,33.10
2018-11-28T04:45:16.129Z,31.57
2018-11-28T04:47:44.342Z,32.13
2018-11-28T04:50:12.805Z,34.67
2018-11-28T04:52:41.026Z,33.20
2018-11-28T04:55:17.248Z,30.60
2018-11-28T04:57:45.568Z,31.63
2018-11-28T05:00:18.658Z,35.43
2018-11-28T05:02:46.877Z,32.63
2018-11-28T05:05:15.022Z,31.57
2018-11-28T05:07:44.004Z,33.07
2018-11-28T05:10:13.217Z,36.07
2018-11-28T05:12:41.381Z,34.20
2018-11-28T05:15:12.525Z,33.87
2018-11-28T05:17:40.733Z,37.63
2018-11-28T05:20:11.189Z,32.73
2018-11-28T05:22:39.445Z,33.53
2018-11-28T05:25:13.889Z,32.90
2018-11-28T05:27:42.104Z,33.93
2018-11-28T05:30:14.147Z,36.50
2018-11-28T05:32:42.269Z,34.57
2018-11-28T05:35:12.529Z,32.07
2018-11-28T05:37:40.648Z,36.13
2018-11-28T05:40:18.436Z,30.97
2018-11-28T05:42:46.654Z,29.83
2018-11-28T05:45:14.791Z,36.07
2018-11-28T05:47:42.916Z,32.70
2018-11-28T05:50:12.108Z,31.33
2018-11-28T05:52:40.224Z,28.10
2018-11-28T05:55:09.618Z,29.83
2018-11-28T05:57:37.750Z,34.73
2018-11-28T06:00:13.536Z,30.20
2018-11-28T06:02:41.720Z,32.13
2018-11-28T06:05:10.586Z,32.40
2018-11-28T06:07:38.856Z,32.50
2018-11-28T06:10:07.430Z,30.17
2018-11-28T06:12:35.600Z,36.27
2018-11-28T06:15:03.773Z,31.53
2018-11-28T06:17:31.876Z,30.40
2018-11-28T06:20:00.024Z,32.93
2018-11-28T06:22:28.120Z,31.53
2018-11-28T06:24:56.248Z,32.17
2018-11-28T06:27:24.369Z,30.23
2018-11-28T06:29:52.502Z,31.90
2018-11-28T06:32:20.621Z,29.80
2018-11-28T06:34:48.745Z,32.10
2018-11-28T06:37:16.912Z,35.37
2018-11-28T06:39:45.032Z,32.40
2018-11-28T06:42:13.137Z,31.87
2018-11-28T06:44:41.256Z,27.37
2018-11-28T06:47:09.364Z,29.73
2018-11-28T06:49:37.473Z,30.90
2018-11-28T06:52:05.594Z,28.13
2018-11-28T06:54:33.689Z,29.60
2018-11-28T06:57:01.912Z,26.67
2018-11-28T06:59:30.017Z,31.03
2018-11-28T07:01:58.137Z,32.40
2018-11-28T07:04:26.241Z,29.30
2018-11-28T07:06:54.380Z,31.87
2018-11-28T07:09:22.512Z,31.70
2018-11-28T07:11:50.628Z,30.00
2018-11-28T07:14:18.764Z,31.93
2018-11-28T07:16:46.898Z,30.47
2018-11-28T07:19:15.001Z,30.03
2018-11-28T07:21:43.125Z,32.33
2018-11-28T07:24:11.297Z,31.73
2018-11-28T07:26:39.429Z,26.23
2018-11-28T07:29:07.540Z,29.27
2018-11-28T07:31:35.652Z,30.03
2018-11-28T07:34:03.776Z,29.23
2018-11-28T07:36:31.885Z,30.20
2018-11-28T07:39:00.133Z,31.53
2018-11-28T07:41:28.464Z,27.13
2018-11-28T07:43:56.568Z,29.13
2018-11-28T07:46:24.708Z,28.63
2018-11-28T07:48:52.828Z,30.50
2018-11-28T07:51:20.955Z,31.73
2018-11-28T07:53:49.060Z,25.40
2018-11-28T07:56:17.188Z,23.13
2018-11-28T07:58:45.288Z,25.97
2018-11-28T08:01:13.400Z,29.17
2018-11-28T08:03:41.516Z,26.93
2018-11-28T08:06:09.630Z,26.67
2018-11-28T08:08:38.363Z,31.60
2018-11-28T08:11:07.314Z,26.90
2018-11-28T08:13:35.525Z,27.07
2018-11-28T08:16:03.640Z,25.83
2018-11-28T08:18:31.742Z,28.67
2018-11-28T08:20:59.864Z,27.17
2018-11-28T08:23:28.220Z,22.60
2018-11-28T08:25:56.117Z,26.37
2018-11-28T08:28:24.202Z,27.83
2018-11-28T08:30:52.325Z,28.07
2018-11-28T08:33:20.449Z,27.63
2018-11-28T08:35:48.565Z,29.47
2018-11-28T08:38:16.672Z,29.70
2018-11-28T08:40:44.789Z,26.33
2018-11-28T08:43:12.895Z,25.63
2018-11-28T08:45:41.028Z,29.83
2018-11-28T08:48:09.137Z,25.07
2018-11-28T08:50:38.086Z,30.37
2018-11-28T08:53:06.976Z,29.23
2018-11-28T08:55:35.118Z,29.00
2018-11-28T08:58:03.226Z,28.93
2018-11-28T09:00:31.328Z,27.93
2018-11-28T09:02:59.457Z,28.37
2018-11-28T09:05:27.576Z,28.07
2018-11-28T09:07:55.689Z,27.27
2018-11-28T09:10:23.877Z,25.30
2018-11-28T09:12:51.993Z,25.83
2018-11-28T09:15:24.837Z,23.67
2018-11-28T09:17:52.964Z,30.50
2018-11-28T09:20:21.056Z,29.97
2018-11-28T09:22:49.172Z,32.47
2018-11-28T09:25:17.962Z,26.40
2018-11-28T09:27:48.270Z,27.83
2018-11-28T09:30:17.276Z,26.70
2018-11-28T09:32:45.844Z,26.43
2018-11-28T09:35:14.524Z,29.10
2018-11-28T09:37:45.423Z,30.30
2018-11-28T09:40:14.993Z,28.77
2018-11-28T09:42:43.121Z,31.27
2018-11-28T09:45:12.552Z,27.63
2018-11-28T09:47:40.701Z,26.80
2018-11-28T09:50:14.724Z,27.80
2018-11-28T09:52:42.852Z,31.07
2018-11-28T09:55:12.401Z,25.47
2018-11-28T09:57:40.545Z,30.80
2018-11-28T10:00:12.560Z,26.17
2018-11-28T10:02:40.725Z,25.33
2018-11-28T10:05:10.832Z,24.37
2018-11-28T10:07:38.953Z,27.47
2018-11-28T10:10:09.216Z,26.47
2018-11-28T10:12:37.373Z,27.33
2018-11-28T10:15:10.387Z,25.03
2018-11-28T10:17:38.571Z,27.87
2018-11-28T10:20:08.076Z,31.53
2018-11-28T10:22:36.193Z,28.00
2018-11-28T10:25:04.617Z,28.37
2018-11-28T10:27:32.733Z,30.80
2018-11-28T10:30:00.956Z,28.47
2018-11-28T10:32:29.085Z,27.83
2018-11-28T10:34:57.196Z,29.70
2018-11-28T10:37:25.322Z,33.30
2018-11-28T10:39:53.428Z,29.67
2018-11-28T10:42:21.538Z,28.30
2018-11-28T10:44:49.654Z,31.33
2018-11-28T10:47:17.773Z,27.17
2018-11-28T10:49:45.977Z,29.73
2018-11-28T10:52:14.089Z,24.13
2018-11-28T10:54:42.214Z,27.20
2018-11-28T10:57:10.437Z,26.70
2018-11-28T10:59:38.548Z,31.07
2018-11-28T11:02:12.129Z,27.33
2018-11-28T11:04:45.631Z,29.60
2018-11-28T11:07:19.200Z,29.07
2018-11-28T11:09:52.735Z,33.37
2018-11-28T11:12:26.122Z,30.63
2018-11-28T11:14:54.234Z,28.10
2018-11-28T11:17:22.372Z,31.67
2018-11-28T11:19:50.479Z,31.00
2018-11-28T11:22:18.598Z,28.43
2018-11-28T11:24:46.711Z,28.87
2018-11-28T11:27:14.815Z,31.13
2018-11-28T11:29:42.939Z,29.20
2018-11-28T11:32:11.037Z,29.73
2018-11-28T11:34:39.161Z,29.43
2018-11-28T11:37:07.270Z,27.03
2018-11-28T11:39:35.396Z,28.30
2018-11-28T11:42:03.495Z,27.83
2018-11-28T11:44:31.617Z,29.77
2018-11-28T11:46:59.803Z,29.13
2018-11-28T11:49:28.296Z,27.47
2018-11-28T11:51:56.061Z,26.63
2018-11-28T11:54:24.201Z,26.90
2018-11-28T11:56:52.320Z,30.03
2018-11-28T11:59:20.489Z,29.73
2018-11-28T12:01:54.573Z,25.87
2018-11-28T12:04:16.800Z,29.37
2018-11-28T12:06:44.905Z,27.07
2018-11-28T12:09:13.024Z,26.73
2018-11-28T12:11:41.160Z,26.67
2018-11-28T12:14:09.297Z,26.70
2018-11-28T12:16:37.454Z,24.40
2018-11-28T12:19:05.821Z,26.90
2018-11-28T12:21:33.946Z,28.57
2018-11-28T12:24:02.061Z,26.37
2018-11-28T12:26:30.161Z,25.40
2018-11-28T12:28:58.301Z,29.53
2018-11-28T12:31:26.404Z,27.83
2018-11-28T12:33:54.530Z,27.80
2018-11-28T12:36:22.657Z,25.57
2018-11-28T12:38:50.788Z,24.83
2018-11-28T12:41:18.922Z,25.93
2018-11-28T12:43:47.021Z,25.93
2018-11-28T12:46:15.128Z,25.77
2018-11-28T12:48:43.240Z,26.63
2018-11-28T12:51:11.349Z,29.00
2018-11-28T12:53:39.469Z,28.57
2018-11-28T12:56:07.601Z,26.63
2018-11-28T12:58:35.718Z,27.83
2018-11-28T13:01:03.817Z,27.50
2018-11-28T13:03:31.943Z,28.73
2018-11-28T13:06:00.057Z,28.60
2018-11-28T13:08:28.176Z,26.73
2018-11-28T13:10:56.276Z,27.97
2018-11-28T13:13:24.393Z,26.77
2018-11-28T13:15:52.490Z,27.40
2018-11-28T13:18:20.645Z,28.13
2018-11-28T13:20:48.758Z,28.13
2018-11-28T13:23:16.912Z,32.47
2018-11-28T13:25:45.016Z,25.57
2018-11-28T13:28:13.128Z,28.23
2018-11-28T13:30:41.241Z,25.70
2018-11-28T13:33:10.384Z,25.73
2018-11-28T13:35:38.515Z,26.70
2018-11-28T13:38:09.884Z,33.37
2018-11-28T13:40:38.000Z,27.90
2018-11-28T13:43:06.446Z,31.60
2018-11-28T13:45:35.985Z,27.93
2018-11-28T13:48:04.099Z,25.67
2018-11-28T13:50:32.215Z,27.43
2018-11-28T13:53:02.207Z,27.03
2018-11-28T13:55:42.218Z,24.83
2018-11-28T13:58:09.958Z,31.23
2018-11-28T14:00:38.060Z,28.37
2018-11-28T14:03:06.193Z,27.50
2018-11-28T14:05:34.370Z,28.33
2018-11-28T14:08:02.465Z,27.73
2018-11-28T14:10:30.566Z,26.17
2018-11-28T14:12:58.659Z,22.17
2018-11-28T14:15:26.773Z,26.20
2018-11-28T14:18:01.259Z,26.07
2018-11-28T14:20:29.360Z,27.90
2018-11-28T14:22:57.476Z,24.83
2018-11-28T14:25:25.718Z,27.30
2018-11-28T14:27:53.703Z,24.93
2018-11-28T14:30:22.728Z,24.10
2018-11-28T14:32:51.433Z,27.80
2018-11-28T14:35:20.257Z,26.67
2018-11-28T14:37:48.298Z,30.20
2018-11-28T14:40:17.471Z,25.33
2018-11-28T14:42:46.869Z,23.90
2018-11-28T14:45:15.973Z,22.83
2018-11-28T14:47:44.456Z,25.40
2018-11-28T14:50:21.180Z,26.57
2018-11-28T14:52:49.367Z,24.10
2018-11-28T14:55:18.608Z,24.50
2018-11-28T14:57:46.720Z,28.93
2018-11-28T15:00:18.928Z,27.57
2018-11-28T15:02:49.254Z,24.73
2018-11-28T15:06:26.246Z,23.30
2018-11-28T15:08:58.580Z,21.70
2018-11-28T15:11:26.691Z,24.57
2018-11-28T15:13:54.788Z,26.93
2018-11-28T15:16:22.909Z,27.23
2018-11-28T15:18:51.045Z,28.60
2018-11-28T15:21:19.187Z,28.33
2018-11-28T15:23:47.281Z,25.90
2018-11-28T15:26:15.398Z,27.60
2018-11-28T15:28:43.503Z,23.87
2018-11-28T15:31:11.615Z,28.90
2018-11-28T15:33:39.707Z,23.93
2018-11-28T15:36:07.808Z,25.43
2018-11-28T15:38:35.913Z,30.10
2018-11-28T15:41:04.024Z,30.80
2018-11-28T15:43:32.134Z,29.30
2018-11-28T15:46:07.006Z,30.20
2018-11-28T15:48:35.094Z,29.43
2018-11-28T15:51:03.209Z,31.93
2018-11-28T15:53:31.325Z,32.77
2018-11-28T15:55:59.430Z,30.60
2018-11-28T15:58:27.530Z,32.67
2018-11-28T16:00:55.652Z,27.47
2018-11-28T16:03:23.753Z,30.40
2018-11-28T16:05:51.859Z,31.80
2018-11-28T16:08:19.957Z,32.30
2018-11-28T16:10:48.093Z,32.83
2018-11-28T16:13:17.469Z,28.17
2018-11-28T16:15:48.314Z,32.43
2018-11-28T16:18:16.413Z,31.67
2018-11-28T16:20:44.520Z,32.47
2018-11-28T16:23:12.623Z,28.63
2018-11-28T16:25:40.729Z,34.17
2018-11-28T16:28:09.109Z,24.93
2018-11-28T16:30:37.237Z,31.00
2018-11-28T16:33:06.189Z,31.93
2018-11-28T16:35:34.357Z,28.83
2018-11-28T16:38:02.469Z,28.10
2018-11-28T16:40:30.605Z,30.87
2018-11-28T16:42:58.757Z,27.00
2018-11-28T16:45:26.921Z,29.77
2018-11-28T16:47:55.030Z,29.00
2018-11-28T16:50:23.172Z,32.10
2018-11-28T16:52:51.289Z,27.83
2018-11-28T16:55:19.389Z,25.87
2018-11-28T16:57:49.002Z,29.97
2018-11-28T17:00:26.003Z,28.93
2018-11-28T17:02:54.869Z,25.67
2018-11-28T17:05:23.276Z,26.63
2018-11-28T17:07:51.797Z,26.50
2018-11-28T17:10:22.040Z,30.20
2018-11-28T17:12:50.736Z,24.00
2018-11-28T17:15:19.418Z,25.60
2018-11-28T17:17:47.557Z,24.53
2018-11-28T17:20:24.576Z,27.63
2018-11-28T17:22:53.982Z,32.63
2018-11-28T17:25:24.296Z,26.07
2018-11-28T17:27:52.439Z,28.13
2018-11-28T17:30:26.486Z,26.83
2018-11-28T17:32:54.733Z,28.00
2018-11-28T17:35:22.692Z,25.50
2018-11-28T17:37:50.954Z,24.07
2018-11-28T17:40:20.290Z,29.57
2018-11-28T17:42:49.741Z,29.20
2018-11-28T17:45:18.291Z,26.23
2018-11-28T17:47:46.393Z,26.87
2018-11-28T17:50:16.317Z,27.03
2018-11-28T17:52:48.145Z,27.23
2018-11-28T17:55:17.228Z,28.90
2018-11-28T17:57:45.341Z,29.43
2018-11-28T18:00:14.853Z,27.93
2018-11-28T18:02:42.982Z,53.70
2018-11-28T18:05:11.433Z,51.97
2018-11-28T18:07:39.608Z,37.67
2018-11-28T18:10:20.649Z,32.07
2018-11-28T18:13:00.200Z,35.43
2018-11-28T18:15:28.310Z,47.70
2018-11-28T18:17:57.112Z,33.23
2018-11-28T18:20:25.217Z,33.33
2018-11-28T18:22:53.343Z,30.47
2018-11-28T18:25:22.040Z,31.17
2018-11-28T18:27:50.624Z,34.87
2018-11-28T18:30:18.724Z,50.47
2018-11-28T18:32:46.832Z,50.60
2018-11-28T18:35:14.936Z,46.67
2018-11-28T18:37:43.048Z,45.47
2018-11-28T18:40:12.033Z,32.83
2018-11-28T18:42:40.993Z,30.40
2018-11-28T18:45:16.827Z,37.57
2018-11-28T18:47:44.970Z,28.00
2018-11-28T18:50:13.698Z,34.63
2018-11-28T18:52:41.858Z,33.77
2018-11-28T18:55:16.325Z,33.97
2018-11-28T18:57:39.420Z,40.37
2018-11-28T19:00:11.526Z,37.97
2018-11-28T19:02:40.011Z,31.57
2018-11-28T19:05:08.149Z,31.13
2018-11-28T19:07:36.260Z,34.57
2018-11-28T19:10:06.685Z,36.27
2018-11-28T19:12:34.797Z,28.50
2018-11-28T19:15:02.900Z,31.07
2018-11-28T19:17:31.022Z,34.43
2018-11-28T19:19:59.128Z,37.03
2018-11-28T19:22:27.281Z,53.27
2018-11-28T19:24:55.349Z,32.23
2018-11-28T19:27:23.463Z,43.20
2018-11-28T19:29:51.560Z,43.47
2018-11-28T19:32:19.732Z,35.30
2018-11-28T19:34:47.845Z,32.07
2018-11-28T19:37:15.977Z,25.90
2018-11-28T19:39:44.096Z,31.80
2018-11-28T19:42:12.201Z,31.23
2018-11-28T19:44:40.320Z,29.13
2018-11-28T19:47:08.696Z,29.57
2018-11-28T19:49:37.960Z,38.80
2018-11-28T19:52:06.165Z,40.33
2018-11-28T19:54:34.312Z,44.83
2018-11-28T19:57:02.425Z,35.73
2018-11-28T19:59:30.544Z,43.40
2018-11-28T20:01:58.645Z,30.40
2018-11-28T20:04:26.753Z,37.60
2018-11-28T20:06:54.857Z,33.97
2018-11-28T20:09:22.972Z,39.13
2018-11-28T20:11:51.108Z,29.80
2018-11-28T20:14:19.248Z,40.73
2018-11-28T20:16:47.355Z,31.10
2018-11-28T20:19:17.609Z,34.27
2018-11-28T20:21:43.713Z,43.67
2018-11-28T20:24:11.843Z,34.57
2018-11-28T20:26:39.964Z,32.07
2018-11-28T20:29:08.105Z,28.93
2018-11-28T20:31:36.273Z,32.03
2018-11-28T20:34:04.680Z,29.67
2018-11-28T20:36:32.905Z,26.80
2018-11-28T20:39:00.956Z,33.87
2018-11-28T20:41:29.117Z,38.73
2018-11-28T20:43:57.296Z,29.13
2018-11-28T20:46:25.405Z,27.03
2018-11-28T20:48:53.608Z,26.67
2018-11-28T20:51:21.786Z,28.47
2018-11-28T20:53:49.912Z,26.50
2018-11-28T20:56:18.040Z,28.00
2018-11-28T20:58:46.136Z,19.63
2018-11-28T21:01:14.256Z,24.77
2018-11-28T21:03:42.463Z,46.93
2018-11-28T21:06:10.572Z,27.40
2018-11-28T21:08:38.684Z,21.10
2018-11-28T21:11:13.612Z,24.93
2018-11-28T21:13:41.716Z,28.33
2018-11-28T21:16:09.825Z,33.23
2018-11-28T21:18:37.934Z,20.13
2018-11-28T21:21:07.338Z,19.83
2018-11-28T21:23:35.482Z,34.83
2018-11-28T21:26:03.568Z,29.80
2018-11-28T21:28:32.520Z,29.57
2018-11-28T21:31:00.657Z,21.87
2018-11-28T21:33:28.764Z,22.10
2018-11-28T21:35:56.888Z,21.10
2018-11-28T21:38:24.999Z,19.33
2018-11-28T21:40:53.152Z,26.77
2018-11-28T21:43:21.261Z,21.80
2018-11-28T21:45:49.412Z,18.77
2018-11-28T21:48:17.480Z,22.43
2018-11-28T21:50:45.617Z,20.20
2018-11-28T21:53:13.778Z,21.00
2018-11-28T21:55:41.875Z,23.47
2018-11-28T21:58:09.988Z,20.17
2018-11-28T22:00:38.107Z,21.53
2018-11-28T22:03:06.920Z,22.90
2018-11-28T22:05:35.036Z,25.73
2018-11-28T22:08:03.228Z,21.07
2018-11-28T22:10:31.536Z,20.10
2018-11-28T22:12:59.648Z,23.17
2018-11-28T22:15:27.757Z,22.03
2018-11-28T22:17:57.780Z,21.67
2018-11-28T22:20:26.456Z,20.93
2018-11-28T22:22:54.584Z,22.90
2018-11-28T22:25:23.629Z,20.93
2018-11-28T22:27:51.813Z,23.13
2018-11-28T22:30:21.912Z,24.27
2018-11-28T22:32:50.060Z,21.83
2018-11-28T22:35:18.172Z,23.73
2018-11-28T22:37:46.280Z,22.70
2018-11-28T22:40:16.568Z,21.13
2018-11-28T22:42:44.684Z,23.37
2018-11-28T22:45:16.665Z,21.43
2018-11-28T22:47:44.776Z,24.60
2018-11-28T22:50:13.444Z,21.17
2018-11-28T22:52:41.593Z,25.27
2018-11-28T22:55:12.537Z,21.13
2018-11-28T22:57:40.648Z,20.27
2018-11-28T23:00:17.453Z,22.13
2018-11-28T23:02:51.676Z,22.20
2018-11-28T23:05:20.111Z,19.60
2018-11-28T23:07:48.247Z,21.90
2018-11-28T23:10:16.381Z,22.17
2018-11-28T23:12:44.492Z,22.87
2018-11-28T23:15:12.600Z,19.67
2018-11-28T23:17:40.736Z,23.23
2018-11-28T23:20:09.761Z,22.47
2018-11-28T23:22:37.872Z,22.73
2018-11-28T23:25:07.869Z,22.20
2018-11-28T23:27:35.996Z,22.03
2018-11-28T23:30:04.412Z,22.87
2018-11-28T23:32:32.536Z,21.03
2018-11-28T23:35:00.636Z,22.10
2018-11-28T23:37:28.757Z,21.53
2018-11-28T23:39:56.868Z,18.43
2018-11-28T23:42:24.985Z,23.50
2018-11-28T23:44:53.144Z,18.83
2018-11-28T23:47:21.252Z,21.00
2018-11-28T23:49:49.360Z,20.37
2018-11-28T23:52:17.476Z,18.43
2018-11-28T23:54:45.600Z,19.03
2018-11-28T23:57:13.713Z,24.90
2018-11-28T23:59:41.821Z,19.60
